Impacts METAR Board
IDs:

KPHX - Phoenix/Sky Harbor, AZ, US

Updated at: 1200 UTC 17 Dec 2018
Potential Impact None Slight Moderate High
Time 17/00Z 17/01Z 17/02Z 17/03Z 17/04Z 17/05Z 17/06Z 17/07Z 17/08Z 17/09Z 17/10Z 17/11Z 17/12Z
Temp67 63 63 59 56 54 54 53 53 51 50 49 47
Dewpt25 31 28 31 33 32 33 33 35 35 35 33 33
Altim30.11 30.12 30.13 30.14 30.13 30.15 30.15 30.16 30.15 30.14 30.13 30.12 30.11
VIS10 10 10 10 10 10 10 10 10 10 10 10 10
CIG170 170 170 230 -- -- 230 160 230 -- -- -- --
CoverBKNBKNBKNBKNSCTSCTBKNBKNBKNSCTFEWFEWCLR
FltCatVFRVFRVFRVFRVFRVFRVFRVFRVFRVFRVFRVFRVFR
WX--------------------------
WDir00000000100900900
WSpd0 0 0 0 0 0 0 0 4 3 0 4 0
WGst-- -- -- -- -- -- -- -- -- -- -- -- --
Raw hourly METARs
KPHX 162351Z 00000KT 10SM SCT150 BKN170 BKN210 19/M04 A3011 RMK AO2 SLP188 T01941039 10200 20161 56004
KPHX 170051Z 00000KT 10SM SCT150 BKN170 BKN210 17/M01 A3012 RMK AO2 SLP194 VIRGA N T01721006
KPHX 170151Z 00000KT 10SM SCT150 BKN170 BKN210 17/M02 A3013 RMK AO2 SLP194 VIRGA N T01721022
KPHX 170251Z 00000KT 10SM SCT150 SCT170 BKN230 15/M01 A3014 RMK AO2 SLP200 T01501006 51009
KPHX 170351Z 00000KT 10SM SCT170 SCT230 13/01 A3013 RMK AO2 SLP199 T01330006
KPHX 170451Z 00000KT 10SM SCT170 SCT230 12/00 A3015 RMK AO2 SLP203 T01220000
KPHX 170551Z 00000KT 10SM SCT170 BKN230 12/01 A3015 RMK AO2 SLP204 T01220006 10194 20122 53006
KPHX 170651Z 00000KT 10SM BKN160 BKN250 12/01 A3016 RMK AO2 SLP205 T01170006 402000078
KPHX 170751Z 10004KT 10SM FEW170 BKN230 12/02 A3015 RMK AO2 SLP202 T01170017
KPHX 170851Z 09003KT 10SM FEW170 SCT250 11/02 A3014 RMK AO2 SLP197 T01060017 58006
KPHX 170951Z 00000KT 10SM FEW170 10/02 A3013 RMK AO2 SLP195 T01000017
KPHX 171051Z 09004KT 10SM FEW170 09/01 A3012 RMK AO2 SLP191 T00940006
KPHX 171151Z 00000KT 10SM CLR 08/01 A3011 RMK AO2 SLP190 T00830006 10133 20083 56007



Page loaded:  12:04 UTC  |   04:04 AM Pacific  |   05:04 AM Mountain  |   06:04 AM Central  |   07:04 AM Eastern

 

ADVISORIES

FORECASTS

FORECASTS

OBSERVATIONS

USER TOOLS

ABOUT US